Time;durP1;ratioP1;P1;durP2;ratioP2;P2;SDS_P1;SDS_P2;PMS_P1;PMS_P2;Temp;Humidity;BMP_temperature;BMP_pressure;BME280_temperature;BME280_humidity;BME280_pressure;Samples;Min_cycle;Max_cycle;Signal;HPM_P1;HPM_P2
2022/07/16 00:02:10;;;;;;;2.98;2.40;;;;;;;12.77;76.87;95756.63;1666361;86;20997;-65
2022/07/16 00:04:36;;;;;;;2.67;2.47;;;;;;;12.78;76.25;95758.82;1666231;85;21500;-65
2022/07/16 00:07:03;;;;;;;3.90;2.20;;;;;;;12.76;76.29;95760.63;1666538;86;21018;-65
2022/07/16 00:09:30;;;;;;;3.08;2.40;;;;;;;12.81;76.04;95751.25;1666307;86;21049;-66
2022/07/16 00:11:56;;;;;;;5.15;2.60;;;;;;;12.82;76.50;95751.66;1666523;86;21006;-65
2022/07/16 00:14:23;;;;;;;3.62;3.00;;;;;;;12.82;76.41;95752.98;1669407;85;21052;-65
2022/07/16 00:16:50;;;;;;;7.17;3.10;;;;;;;12.81;76.22;95748.61;1680969;85;21088;-66
2022/07/16 00:19:18;;;;;;;4.45;3.10;;;;;;;12.86;76.17;95748.03;1681398;85;21515;-65
2022/07/16 00:21:48;;;;;;;7.25;2.90;;;;;;;12.86;76.00;95748.91;1681478;85;21535;-66
2022/07/16 00:24:16;;;;;;;4.72;2.37;;;;;;;12.92;75.69;95755.35;1681090;85;21558;-65
2022/07/16 00:26:43;;;;;;;3.50;2.40;;;;;;;12.99;75.67;95752.97;1681526;85;21041;-65
2022/07/16 00:29:11;;;;;;;4.87;2.70;;;;;;;13.04;75.06;95754.19;1681414;85;21563;-65
2022/07/16 00:31:38;;;;;;;2.35;2.15;;;;;;;13.05;75.09;95749.75;1681232;85;21045;-65
2022/07/16 00:34:06;;;;;;;3.92;2.70;;;;;;;13.04;74.80;95745.38;1681319;85;21057;-65
2022/07/16 00:36:38;;;;;;;4.83;2.80;;;;;;;12.92;75.13;95745.22;1681418;85;21030;-65
2022/07/16 00:39:07;;;;;;;4.12;2.87;;;;;;;12.76;75.25;95735.48;1681304;85;21093;-65
2022/07/16 00:41:36;;;;;;;3.58;2.85;;;;;;;12.68;75.65;95739.64;1681387;85;21032;-65
2022/07/16 00:44:07;;;;;;;2.40;2.20;;;;;;;12.61;76.06;95731.42;1681445;85;21519;-66
2022/07/16 00:46:35;;;;;;;3.67;2.10;;;;;;;12.55;76.22;95736.88;1681179;85;21026;-66
2022/07/16 00:49:02;;;;;;;2.65;2.22;;;;;;;12.59;75.59;95729.27;1681324;85;21476;-65
2022/07/16 00:51:30;;;;;;;3.20;2.50;;;;;;;12.65;75.39;95722.94;1681319;85;21144;-65
2022/07/16 00:53:57;;;;;;;4.72;2.27;;;;;;;12.63;74.96;95730.08;1681060;85;21121;-65
2022/07/16 00:56:24;;;;;;;2.35;2.15;;;;;;;12.60;74.76;95732.77;1681612;85;21060;-65
2022/07/16 00:58:52;;;;;;;3.37;2.50;;;;;;;12.46;75.36;95731.34;1680968;85;21169;-66
2022/07/16 01:01:19;;;;;;;2.45;2.10;;;;;;;12.32;75.88;95733.00;1681349;85;21049;-65
2022/07/16 01:03:47;;;;;;;2.72;2.20;;;;;;;12.28;76.31;95731.77;1681413;85;21029;-65
2022/07/16 01:06:16;;;;;;;3.33;2.20;;;;;;;12.18;76.08;95732.89;1680990;85;21033;-65
2022/07/16 01:08:46;;;;;;;3.52;2.27;;;;;;;12.10;75.61;95728.64;1681373;85;21514;-65
2022/07/16 01:11:20;;;;;;;3.77;2.02;;;;;;;12.05;75.81;95721.27;1681332;85;21006;-65
2022/07/16 01:13:49;;;;;;;2.20;2.00;;;;;;;12.02;75.67;95719.12;1681378;85;21077;-65
2022/07/16 01:16:18;;;;;;;12.18;2.30;;;;;;;12.03;75.15;95719.09;1678910;85;21018;-65
2022/07/16 01:18:46;;;;;;;3.62;1.98;;;;;;;12.02;74.91;95720.02;1678542;85;21045;-65
2022/07/16 01:21:15;;;;;;;2.37;1.82;;;;;;;12.04;74.76;95718.64;1678666;85;21097;-65
2022/07/16 01:23:42;;;;;;;3.12;2.05;;;;;;;12.08;74.65;95727.80;1678606;85;21531;-65
2022/07/16 01:26:09;;;;;;;3.47;2.10;;;;;;;12.05;73.81;95719.94;1678488;85;21037;-65
2022/07/16 01:28:36;;;;;;;3.15;2.30;;;;;;;11.97;73.61;95722.31;1678213;85;21156;-65
2022/07/16 01:31:03;;;;;;;2.47;2.00;;;;;;;11.99;74.24;95719.19;1678846;85;21037;-66
2022/07/16 01:33:40;;;;;;;3.08;2.20;;;;;;;11.94;73.82;95727.68;1678347;85;21069;-65
2022/07/16 01:36:14;;;;;;;1.92;1.60;;;;;;;11.89;73.91;95727.77;1678789;85;21049;-66
2022/07/16 01:38:45;;;;;;;2.67;1.55;;;;;;;11.76;72.95;95727.13;1678733;85;21055;-66
2022/07/16 01:41:13;;;;;;;2.50;1.80;;;;;;;11.62;72.73;95727.44;1678348;85;21061;-65
2022/07/16 01:43:40;;;;;;;1.65;1.45;;;;;;;11.62;72.97;95726.11;1678708;85;21570;-65
2022/07/16 01:46:07;;;;;;;3.25;1.72;;;;;;;11.53;72.56;95733.36;1678595;85;21033;-65
2022/07/16 01:48:34;;;;;;;1.98;1.70;;;;;;;11.46;72.44;95729.53;1678493;85;21053;-65
2022/07/16 01:51:01;;;;;;;2.52;1.60;;;;;;;11.43;72.43;95731.34;1678361;85;21050;-66
2022/07/16 01:53:29;;;;;;;1.90;1.60;;;;;;;11.40;72.18;95726.13;1678740;85;21013;-65
2022/07/16 01:55:58;;;;;;;4.12;1.50;;;;;;;11.40;71.74;95726.13;1678528;85;21062;-65
2022/07/16 01:58:25;;;;;;;2.08;1.57;;;;;;;11.20;71.90;95721.22;1678625;85;21527;-65
2022/07/16 02:00:53;;;;;;;2.50;1.80;;;;;;;11.11;72.48;95719.61;1678707;85;21047;-65
2022/07/16 02:03:20;;;;;;;2.60;1.92;;;;;;;10.95;72.64;95723.45;1678403;85;21017;-66
2022/07/16 02:05:47;;;;;;;2.43;1.60;;;;;;;10.82;73.19;95716.20;1678452;85;21021;-65
2022/07/16 02:08:14;;;;;;;2.12;1.92;;;;;;;10.72;74.60;95724.72;1678592;85;21575;-65
2022/07/16 02:10:42;;;;;;;3.52;1.85;;;;;;;10.73;74.54;95719.84;1678386;85;21038;-66
2022/07/16 02:13:09;;;;;;;2.23;1.80;;;;;;;10.72;74.48;95719.89;1678342;85;21045;-65
2022/07/16 02:15:36;;;;;;;2.33;1.90;;;;;;;10.63;74.49;95718.27;1680030;85;21081;-66
2022/07/16 02:18:03;;;;;;;3.10;2.10;;;;;;;10.52;74.46;95718.45;1681043;85;21511;-65
2022/07/16 02:20:30;;;;;;;3.07;1.80;;;;;;;10.49;74.67;95715.01;1681253;85;21072;-65
2022/07/16 02:22:57;;;;;;;2.50;2.00;;;;;;;10.45;74.19;95715.94;1681055;85;21089;-65
2022/07/16 02:25:24;;;;;;;3.03;1.80;;;;;;;10.50;74.30;95714.09;1681451;85;21082;-66
2022/07/16 02:28:06;;;;;;;2.07;1.70;;;;;;;10.53;74.58;95708.77;1681556;85;21006;-66
2022/07/16 02:30:40;;;;;;;2.63;1.83;;;;;;;10.48;74.30;95710.19;1681457;85;21053;-66
2022/07/16 02:33:10;;;;;;;5.00;2.63;;;;;;;10.57;74.07;95711.78;1680459;85;21081;-65
2022/07/16 02:35:37;;;;;;;2.23;1.90;;;;;;;10.50;73.35;95703.09;1681480;85;20994;-65
2022/07/16 02:38:06;;;;;;;3.23;1.83;;;;;;;10.43;73.90;95707.17;1681403;85;21037;-66
2022/07/16 02:40:34;;;;;;;2.50;1.90;;;;;;;10.35;74.00;95708.62;1681467;85;21499;-66
2022/07/16 02:43:04;;;;;;;2.17;1.80;;;;;;;10.32;74.81;95706.90;1681509;85;21025;-65
2022/07/16 02:45:34;;;;;;;3.87;2.30;;;;;;;10.35;74.18;95705.98;1681436;85;21001;-66
2022/07/16 02:48:01;;;;;;;1.87;1.77;;;;;;;10.35;74.98;95696.30;1681411;85;21101;-66
2022/07/16 02:50:29;;;;;;;2.80;1.90;;;;;;;10.41;74.84;95690.07;1681638;85;20978;-66
2022/07/16 02:52:56;;;;;;;4.10;1.70;;;;;;;10.44;74.95;95693.11;1681204;85;21040;-66
2022/07/16 02:55:23;;;;;;;4.43;1.87;;;;;;;10.40;74.42;95693.59;1681426;85;21014;-66
2022/07/16 02:57:50;;;;;;;2.83;2.10;;;;;;;10.36;74.17;95690.14;1681597;85;21018;-65
2022/07/16 03:00:17;;;;;;;2.70;1.90;;;;;;;10.37;74.28;95700.23;1681365;85;21073;-66
2022/07/16 03:02:45;;;;;;;3.43;2.40;;;;;;;10.40;73.83;95702.36;1681405;85;21071;-65
2022/07/16 03:05:13;;;;;;;1.80;1.70;;;;;;;10.35;74.00;95689.70;1681405;85;21037;-66
2022/07/16 03:07:40;;;;;;;2.00;1.80;;;;;;;10.32;74.21;95690.21;1681180;85;21104;-66
2022/07/16 03:10:10;;;;;;;1.90;1.80;;;;;;;10.32;74.10;95690.21;1681235;85;21049;-66
2022/07/16 03:12:37;;;;;;;4.60;1.90;;;;;;;10.37;74.05;95707.70;1681286;85;21057;-65
2022/07/16 03:15:05;;;;;;;1.90;1.80;;;;;;;10.43;73.59;95696.63;1679276;85;21140;-66
2022/07/16 03:17:32;;;;;;;1.87;1.67;;;;;;;10.46;73.13;95699.20;1666310;86;21049;-66
2022/07/16 03:19:59;;;;;;;3.90;2.10;;;;;;;10.42;72.73;95698.84;1666513;86;21038;-66
2022/07/16 03:22:26;;;;;;;2.87;2.23;;;;;;;10.33;73.42;95716.99;1666450;86;21042;-65
2022/07/16 03:24:52;;;;;;;2.90;2.27;;;;;;;10.32;73.77;95708.67;1666449;86;21066;-66
2022/07/16 03:27:19;;;;;;;3.83;2.10;;;;;;;10.28;74.67;95718.83;1666373;86;21070;-65
2022/07/16 03:29:45;;;;;;;3.57;2.20;;;;;;;10.24;75.81;95710.08;1666630;86;21098;-65
2022/07/16 03:32:13;;;;;;;2.00;1.73;;;;;;;10.30;76.12;95702.09;1666559;86;20990;-66
2022/07/16 03:34:39;;;;;;;2.00;1.53;;;;;;;10.32;75.26;95708.22;1666161;86;21006;-66
2022/07/16 03:37:06;;;;;;;1.63;1.53;;;;;;;10.44;74.62;95712.89;1666529;86;21006;-66
2022/07/16 03:39:33;;;;;;;7.07;2.00;;;;;;;10.58;73.88;95705.17;1666437;86;21030;-66
2022/07/16 03:42:00;;;;;;;2.40;2.20;;;;;;;10.61;73.95;95706.89;1666524;86;21045;-66
2022/07/16 03:44:27;;;;;;;3.53;2.30;;;;;;;10.66;75.35;95706.78;1666304;86;21098;-66
2022/07/16 03:46:54;;;;;;;4.50;2.40;;;;;;;10.62;75.05;95715.22;1666342;86;21644;-66
2022/07/16 03:49:21;;;;;;;3.50;2.43;;;;;;;10.63;75.41;95718.27;1665885;86;21118;-66
2022/07/16 03:51:47;;;;;;;3.30;1.80;;;;;;;10.61;75.52;95714.35;1666452;86;20994;-66
2022/07/16 03:54:14;;;;;;;5.73;2.40;;;;;;;10.69;75.54;95718.64;1666413;86;21065;-66
2022/07/16 03:56:40;;;;;;;2.73;2.53;;;;;;;10.78;75.20;95719.77;1666455;86;21021;-66
2022/07/16 03:59:10;;;;;;;3.35;2.20;;;;;;;10.94;75.12;95720.40;1666184;86;21110;-66
2022/07/16 04:01:36;;;;;;;2.23;1.90;;;;;;;11.08;74.84;95714.39;1666405;86;21022;-66
2022/07/16 04:04:04;;;;;;;5.92;2.77;;;;;;;11.24;74.90;95717.64;1666299;86;21034;-66
2022/07/16 04:06:30;;;;;;;3.12;2.75;;;;;;;11.42;74.72;95719.05;1666402;86;21018;-66
2022/07/16 04:08:57;;;;;;;4.78;2.90;;;;;;;11.59;74.40;95714.30;1666332;86;21069;-65
2022/07/16 04:11:24;;;;;;;4.20;2.62;;;;;;;11.69;74.11;95709.23;1666400;86;21050;-66
2022/07/16 04:13:50;;;;;;;2.98;2.45;;;;;;;11.70;74.65;95708.31;1666406;86;21082;-66
2022/07/16 04:16:17;;;;;;;2.85;2.47;;;;;;;11.79;74.62;95705.05;1673890;85;21014;-66
2022/07/16 04:18:43;;;;;;;4.83;2.67;;;;;;;11.97;74.91;95713.95;1681439;85;21065;-66
2022/07/16 04:21:10;;;;;;;3.70;2.50;;;;;;;12.17;74.86;95712.19;1681424;85;21025;-65
2022/07/16 04:23:37;;;;;;;3.17;2.40;;;;;;;12.32;74.68;95714.91;1681421;85;21029;-66
2022/07/16 04:26:04;;;;;;;4.20;2.85;;;;;;;12.40;74.33;95715.62;1681488;85;21017;-66
2022/07/16 04:28:31;;;;;;;4.08;2.52;;;;;;;12.48;74.24;95709.68;1681443;85;21089;-66
2022/07/16 04:31:00;;;;;;;3.20;2.62;;;;;;;12.66;74.13;95707.03;1681149;85;22324;-66
2022/07/16 04:33:26;;;;;;;3.00;2.70;;;;;;;12.87;72.76;95705.61;1681474;85;20997;-66
2022/07/16 04:35:53;;;;;;;4.67;2.30;;;;;;;13.05;72.45;95707.36;1681616;85;21037;-66
2022/07/16 04:38:20;;;;;;;3.27;2.72;;;;;;;13.19;71.41;95707.41;1681352;85;21048;-66
2022/07/16 04:40:46;;;;;;;3.92;2.70;;;;;;;13.28;71.44;95711.64;1681414;85;21025;-66
2022/07/16 04:43:13;;;;;;;2.83;2.55;;;;;;;13.34;70.93;95715.91;1681024;85;21014;-66
2022/07/16 04:45:40;;;;;;;4.30;2.45;;;;;;;13.37;71.11;95708.72;1681468;85;21494;-66
2022/07/16 04:48:07;;;;;;;2.60;2.22;;;;;;;13.41;70.76;95709.52;1681405;85;21061;-66
2022/07/16 04:50:33;;;;;;;4.15;2.40;;;;;;;13.49;70.82;95707.98;1681579;85;21017;-66
2022/07/16 04:53:00;;;;;;;2.90;2.60;;;;;;;13.62;70.48;95709.37;1681139;85;21120;-66
2022/07/16 04:55:27;;;;;;;3.17;2.50;;;;;;;13.70;69.51;95704.70;1681321;85;21101;-65
2022/07/16 04:57:54;;;;;;;4.55;3.15;;;;;;;13.82;69.38;95705.67;1681146;85;21522;-66
2022/07/16 05:00:21;;;;;;;4.17;3.17;;;;;;;13.96;68.93;95703.05;1681265;85;21065;-66
2022/07/16 05:02:56;;;;;;;4.92;3.10;;;;;;;14.09;67.49;95700.94;1681466;85;21010;-66
2022/07/16 05:05:30;;;;;;;7.65;2.80;;;;;;;14.20;68.03;95700.98;1681249;85;21041;-66
2022/07/16 05:07:57;;;;;;;;;;;;;;;14.34;68.10;95702.34;1683676;85;21049;-66
2022/07/16 05:10:24;;;;;;;9.50;4.60;;;;;;;14.46;68.04;95693.98;1681673;85;20109;-66
2022/07/16 05:12:52;;;;;;;12.70;5.83;;;;;;;14.58;67.39;95687.45;1681271;85;21164;-66
2022/07/16 05:15:19;;;;;;;13.20;4.60;;;;;;;14.71;66.38;95688.31;1681120;85;21001;-66
2022/07/16 05:17:46;;;;;;;11.97;5.90;;;;;;;14.87;66.21;95690.48;1666374;85;21006;-66
2022/07/16 05:20:13;;;;;;;7.20;4.33;;;;;;;15.04;66.25;95684.09;1665770;86;21603;-66
2022/07/16 05:22:40;;;;;;;6.15;3.45;;;;;;;15.21;66.12;95681.33;1666433;86;21042;-66
2022/07/16 05:25:09;;;;;;;4.47;2.80;;;;;;;15.34;66.10;95682.15;1666056;86;21034;-66
2022/07/16 05:27:37;;;;;;;4.43;3.13;;;;;;;15.53;65.94;95675.72;1666227;86;21033;-66
2022/07/16 05:30:05;;;;;;;3.90;2.60;;;;;;;15.69;64.48;95673.82;1666355;86;20986;-66
2022/07/16 05:32:33;;;;;;;3.37;2.70;;;;;;;15.85;64.24;95679.02;1666290;86;21036;-66
2022/07/16 05:35:00;;;;;;;5.45;2.90;;;;;;;16.01;63.74;95678.81;1666017;86;21042;-66
2022/07/16 05:37:26;;;;;;;4.08;2.85;;;;;;;16.19;63.36;95667.05;1666236;86;21046;-66
2022/07/16 05:39:53;;;;;;;6.72;2.60;;;;;;;16.36;62.75;95673.05;1666051;86;21049;-66
2022/07/16 05:42:20;;;;;;;3.95;2.83;;;;;;;16.54;62.79;95664.31;1666613;86;21057;-66
2022/07/16 05:44:47;;;;;;;4.85;2.50;;;;;;;16.96;60.56;95665.27;1666416;86;21022;-66
2022/07/16 05:47:13;;;;;;;3.58;2.52;;;;;;;16.96;60.56;95665.27;1666281;86;20994;-66
2022/07/16 05:49:40;;;;;;;2.62;2.40;;;;;;;17.13;60.62;95665.88;1666248;86;21057;-66
2022/07/16 05:52:07;;;;;;;3.65;2.27;;;;;;;17.28;59.61;95666.08;1666356;86;21560;-66
2022/07/16 05:54:34;;;;;;;3.27;2.52;;;;;;;17.46;60.21;95675.09;1665947;86;21085;-66
2022/07/16 05:57:01;;;;;;;4.87;2.45;;;;;;;17.60;58.74;95669.60;1666399;86;21025;-66
2022/07/16 05:59:27;;;;;;;3.58;2.70;;;;;;;17.82;58.96;95669.53;1666096;86;21520;-66
2022/07/16 06:01:54;;;;;;;5.83;3.10;;;;;;;18.01;56.94;95672.20;1666261;86;21035;-66
2022/07/16 06:04:21;;;;;;;4.10;2.60;;;;;;;18.22;55.98;95672.98;1666282;86;21070;-66
2022/07/16 06:06:47;;;;;;;5.10;2.45;;;;;;;18.42;53.23;95670.26;1666157;86;21030;-66
2022/07/16 06:09:15;;;;;;;2.70;2.45;;;;;;;18.58;52.90;95677.91;1666388;86;21034;-66
2022/07/16 06:11:42;;;;;;;4.50;2.60;;;;;;;18.69;52.00;95682.72;1666372;86;21086;-66
2022/07/16 06:14:09;;;;;;;2.83;2.10;;;;;;;18.93;50.01;95681.16;1666447;86;21057;-66
2022/07/16 06:16:41;;;;;;;3.30;2.40;;;;;;;19.14;51.36;95688.09;1671034;85;21077;-66
2022/07/16 06:19:08;;;;;;;3.83;1.92;;;;;;;19.37;50.26;95694.07;1678793;85;21037;-66
2022/07/16 06:21:35;;;;;;;3.10;1.95;;;;;;;19.53;47.28;95697.70;1678740;85;21555;-66
2022/07/16 06:24:03;;;;;;;3.05;1.90;;;;;;;19.81;47.27;95697.13;1678484;85;21129;-67
2022/07/16 06:26:29;;;;;;;4.90;2.42;;;;;;;20.04;44.40;95693.69;1678693;85;21045;-66
2022/07/16 06:28:56;;;;;;;4.15;2.30;;;;;;;20.22;44.76;95699.85;1678705;85;21037;-66
2022/07/16 06:31:23;;;;;;;4.87;2.12;;;;;;;20.37;43.14;95714.22;1678702;85;21088;-66
2022/07/16 06:33:49;;;;;;;3.98;2.00;;;;;;;20.53;43.77;95703.02;1678935;85;21037;-66
2022/07/16 06:36:16;;;;;;;5.42;2.47;;;;;;;20.60;43.06;95701.77;1678964;85;20998;-66
2022/07/16 06:38:43;;;;;;;1.98;1.60;;;;;;;20.58;42.95;95705.00;1678859;85;21074;-66
2022/07/16 06:41:10;;;;;;;3.67;2.10;;;;;;;20.58;43.06;95713.52;1679082;85;21005;-66
2022/07/16 06:43:36;;;;;;;7.85;2.00;;;;;;;20.50;42.84;95710.77;1678441;85;21017;-66
2022/07/16 06:46:03;;;;;;;3.55;2.22;;;;;;;20.59;42.21;95716.13;1678889;85;21009;-66
2022/07/16 06:48:29;;;;;;;3.75;2.27;;;;;;;20.74;42.98;95705.88;1678846;85;21520;-67
2022/07/16 06:50:56;;;;;;;3.00;2.17;;;;;;;20.86;41.84;95712.81;1678811;85;21034;-66
2022/07/16 06:53:23;;;;;;;6.37;2.00;;;;;;;20.90;41.56;95711.22;1678465;85;21129;-66
2022/07/16 06:55:50;;;;;;;4.95;2.30;;;;;;;20.91;41.83;95703.55;1678714;85;21041;-66
2022/07/16 06:58:17;;;;;;;3.45;2.12;;;;;;;20.86;42.74;95707.45;1678762;85;21086;-66
2022/07/16 07:00:43;;;;;;;3.27;2.20;;;;;;;20.80;42.41;95717.20;1678823;85;21021;-66
2022/07/16 07:03:11;;;;;;;3.17;2.02;;;;;;;21.01;42.38;95705.22;1678736;85;21546;-66
2022/07/16 07:05:39;;;;;;;2.60;1.80;;;;;;;21.21;42.75;95709.91;1678798;85;21033;-66
2022/07/16 07:08:06;;;;;;;5.87;2.47;;;;;;;21.29;42.88;95723.28;1678994;85;21006;-66
2022/07/16 07:10:32;;;;;;;3.47;2.20;;;;;;;21.43;43.28;95723.83;1678865;85;20986;-67
2022/07/16 07:13:00;;;;;;;2.60;2.10;;;;;;;21.49;42.13;95723.45;1678673;85;21041;-66
2022/07/16 07:15:27;;;;;;;4.22;2.02;;;;;;;21.36;41.87;95727.31;1678857;85;21006;-66
2022/07/16 07:17:54;;;;;;;4.60;2.12;;;;;;;21.23;42.09;95726.31;1668831;84;21078;-66
2022/07/16 07:20:21;;;;;;;2.47;2.05;;;;;;;21.15;42.18;95750.91;1666343;86;21038;-66
2022/07/16 07:22:48;;;;;;;2.60;2.08;;;;;;;20.99;42.80;95738.01;1666232;86;21086;-66
2022/07/16 07:25:14;;;;;;;5.45;2.00;;;;;;;20.85;42.88;95737.92;1666438;86;21524;-66
2022/07/16 07:27:42;;;;;;;4.75;1.82;;;;;;;20.77;43.20;95750.42;1666398;86;21552;-66
2022/07/16 07:30:11;;;;;;;2.62;2.10;;;;;;;20.64;43.32;95751.59;1666358;86;21046;-66
2022/07/16 07:32:38;;;;;;;2.87;2.33;;;;;;;20.58;43.94;95757.75;1666276;86;21045;-66
2022/07/16 07:35:06;;;;;;;5.70;2.40;;;;;;;20.51;44.45;95757.19;1666216;86;21524;-66
2022/07/16 07:37:33;;;;;;;3.58;2.62;;;;;;;20.41;44.58;95759.53;1666325;86;21520;-66
2022/07/16 07:40:03;;;;;;;4.15;2.00;;;;;;;20.41;44.00;95759.53;1666495;86;21053;-66
2022/07/16 07:42:30;;;;;;;4.42;2.58;;;;;;;20.45;44.66;95760.22;1666454;86;21602;-66
2022/07/16 07:44:56;;;;;;;6.03;2.00;;;;;;;20.42;44.20;95758.58;1666632;86;20998;-66
2022/07/16 07:47:23;;;;;;;2.90;1.90;;;;;;;20.59;44.26;95764.39;1666046;86;21049;-66
2022/07/16 07:49:50;;;;;;;20.72;3.15;;;;;;;20.78;43.28;95755.30;1666295;86;21058;-66
2022/07/16 07:52:17;;;;;;;3.45;2.30;;;;;;;21.00;42.74;95748.25;1666404;86;21488;-66
2022/07/16 07:54:44;;;;;;;4.03;1.98;;;;;;;21.17;43.24;95744.98;1666223;86;21038;-66
2022/07/16 07:57:10;;;;;;;3.17;1.95;;;;;;;21.29;41.98;95742.52;1666316;86;21026;-66
2022/07/16 07:59:37;;;;;;;7.28;2.25;;;;;;;21.53;42.08;95746.48;1666275;86;21533;-66
2022/07/16 08:02:04;;;;;;;3.50;2.30;;;;;;;21.80;42.50;95746.66;1666119;86;21085;-66
2022/07/16 08:04:33;;;;;;;2.58;2.27;;;;;;;22.12;42.31;95745.14;1666286;86;21149;-66
2022/07/16 08:07:00;;;;;;;3.27;2.37;;;;;;;22.42;41.69;95747.77;1666157;85;21414;-66
2022/07/16 08:09:27;;;;;;;2.90;2.27;;;;;;;22.66;41.53;95741.81;1666356;86;20995;-66
2022/07/16 08:11:54;;;;;;;3.58;2.10;;;;;;;22.94;40.98;95740.89;1666430;86;21034;-66
2022/07/16 08:14:21;;;;;;;4.03;2.40;;;;;;;23.18;40.84;95742.46;1666361;86;21045;-67
2022/07/16 08:16:48;;;;;;;3.52;2.40;;;;;;;23.43;40.65;95747.56;1669231;85;21049;-66
2022/07/16 08:19:15;;;;;;;4.47;2.08;;;;;;;23.61;40.25;95739.61;1681675;85;21073;-66
2022/07/16 08:21:41;;;;;;;3.27;2.40;;;;;;;23.64;38.47;95745.28;1680907;85;21571;-66
2022/07/16 08:26:53;;;;;;;4.62;2.47;;;;;;;23.93;38.04;95744.64;1681673;85;21057;-67
2022/07/16 08:29:20;;;;;;;3.30;2.52;;;;;;;23.92;36.64;95745.62;1681507;85;21052;-67
2022/07/16 08:31:46;;;;;;;3.60;2.50;;;;;;;24.09;38.68;95747.12;1681555;85;20998;-66
2022/07/16 08:34:14;;;;;;;2.83;2.25;;;;;;;24.10;36.50;95750.22;1681260;85;21480;-67
2022/07/16 08:36:41;;;;;;;4.17;2.27;;;;;;;24.20;36.56;95756.69;1681024;85;21092;-67
2022/07/16 08:39:08;;;;;;;3.22;2.22;;;;;;;24.13;37.80;95757.59;1681470;85;21001;-66
2022/07/16 08:41:36;;;;;;;3.40;2.10;;;;;;;24.23;37.27;95749.72;1681616;85;21077;-66
2022/07/16 08:44:03;;;;;;;5.50;2.67;;;;;;;24.30;36.46;95748.81;1681024;85;21546;-66
2022/07/16 08:46:32;;;;;;;2.92;2.30;;;;;;;24.45;36.76;95752.27;1681318;85;21039;-66
2022/07/16 08:48:59;;;;;;;7.22;2.60;;;;;;;24.53;36.83;95755.30;1681579;85;21022;-66
2022/07/16 08:51:33;;;;;;;4.20;2.22;;;;;;;24.45;36.01;95748.22;1681321;85;21006;-66
2022/07/16 08:54:08;;;;;;;8.33;2.50;;;;;;;24.49;35.52;95755.13;1681561;85;21026;-66
2022/07/16 08:56:36;;;;;;;3.70;2.60;;;;;;;24.49;36.39;95763.22;1681296;85;21046;-66
2022/07/16 08:59:05;;;;;;;3.17;2.27;;;;;;;24.53;35.71;95757.50;1681327;84;21101;-66
2022/07/16 09:01:33;;;;;;;5.05;1.90;;;;;;;24.77;36.46;95745.91;1681397;85;21519;-66
2022/07/16 09:04:01;;;;;;;3.80;2.05;;;;;;;24.57;33.20;95757.67;1681269;85;21523;-66
2022/07/16 09:06:28;;;;;;;4.10;2.20;;;;;;;24.63;34.78;95754.16;1681307;85;21073;-66
2022/07/16 09:08:56;;;;;;;5.75;2.22;;;;;;;24.91;36.19;95748.97;1681341;85;21102;-66
2022/07/16 09:11:28;;;;;;;4.55;2.30;;;;;;;24.87;33.50;95753.71;1681459;85;21013;-66
2022/07/16 09:14:11;;;;;;;3.30;2.10;;;;;;;24.88;33.60;95755.45;1681756;85;21037;-66
2022/07/16 09:16:42;;;;;;;2.58;2.20;;;;;;;24.79;32.21;95767.77;1681415;85;21045;-66
2022/07/16 09:19:13;;;;;;;7.62;2.20;;;;;;;24.54;33.43;95760.56;1678617;85;21085;-66
2022/07/16 09:22:11;;;;;;;2.70;2.10;;;;;;;24.43;33.71;95771.24;1678628;85;21516;-66
2022/07/16 09:24:52;;;;;;;3.67;2.37;;;;;;;24.55;33.76;95766.85;1678719;85;21021;-66
2022/07/16 09:27:25;;;;;;;6.50;2.08;;;;;;;24.41;33.88;95761.89;1678846;85;21069;-66
2022/07/16 09:29:58;;;;;;;2.67;2.15;;;;;;;24.43;33.04;95773.94;1678758;85;21105;-66
2022/07/16 09:32:34;;;;;;;2.58;2.00;;;;;;;24.15;33.85;95763.74;1678574;85;21037;-66
2022/07/16 09:35:11;;;;;;;6.10;2.50;;;;;;;24.05;33.98;95764.50;1678719;85;21049;-66
2022/07/16 09:37:59;;;;;;;3.75;2.52;;;;;;;24.17;34.47;95764.50;1678643;85;21523;-66
2022/07/16 09:40:33;;;;;;;1.70;1.60;;;;;;;24.73;33.85;95766.02;1678825;85;21014;-66
2022/07/16 09:43:14;;;;;;;2.20;1.98;;;;;;;24.42;33.42;95769.53;1676312;85;21625;-66
2022/07/16 09:45:43;;;;;;;3.95;2.47;;;;;;;24.18;32.55;95765.36;1678038;85;21085;-66
2022/07/16 09:48:30;;;;;;;4.15;2.02;;;;;;;24.18;33.68;95768.91;1678713;85;21045;-66
2022/07/16 09:51:18;;;;;;;2.58;2.37;;;;;;;24.58;33.22;95766.13;1678567;85;21054;-66
2022/07/16 09:53:47;;;;;;;2.92;2.33;;;;;;;24.77;32.44;95764.34;1678651;85;21531;-66
2022/07/16 09:56:17;;;;;;;3.77;2.30;;;;;;;25.09;33.34;95761.60;1678664;85;21069;-66
2022/07/16 09:58:51;;;;;;;6.87;2.50;;;;;;;25.65;33.25;95755.16;1678748;85;21041;-66
2022/07/16 10:01:18;;;;;;;3.58;2.20;;;;;;;25.62;30.57;95760.31;1678539;85;21053;-66
2022/07/16 10:03:47;;;;;;;2.98;1.90;;;;;;;25.72;30.87;95753.72;1678590;85;21077;-66
2022/07/16 10:06:16;;;;;;;2.33;2.00;;;;;;;26.01;30.09;95754.23;1678477;85;21060;-66
2022/07/16 10:08:43;;;;;;;3.40;1.85;;;;;;;25.57;29.54;95757.59;1678617;85;21041;-66
2022/07/16 10:11:11;;;;;;;3.62;2.20;;;;;;;25.33;29.95;95753.07;1678618;85;21025;-66
2022/07/16 10:13:42;;;;;;;4.62;2.20;;;;;;;25.29;29.80;95751.56;1678688;85;21041;-66
2022/07/16 10:16:09;;;;;;;3.92;1.92;;;;;;;25.28;30.55;95759.80;1678769;85;21018;-66
2022/07/16 10:18:41;;;;;;;2.00;1.75;;;;;;;25.38;29.46;95762.19;1680541;85;21037;-66
2022/07/16 10:21:15;;;;;;;4.83;2.30;;;;;;;25.26;28.80;95744.55;1680653;85;21033;-66
2022/07/16 10:23:50;;;;;;;2.70;1.90;;;;;;;25.43;30.52;95758.65;1681344;85;21515;-66
2022/07/16 10:26:21;;;;;;;8.18;2.08;;;;;;;25.74;29.20;95752.27;1681596;85;20982;-66
2022/07/16 10:28:51;;;;;;;2.27;1.85;;;;;;;26.13;29.04;95749.69;1681205;85;21006;-66
2022/07/16 10:32:29;;;;;;;3.95;2.00;;;;;;;25.80;28.24;95749.94;1681375;85;21070;-66
2022/07/16 10:34:18;;;;;;;;;;;;;;;25.90;30.26;95735.26;1673720;85;21074;-66
2022/07/16 10:36:53;;;;;;;3.55;1.92;;;;;;;26.26;30.48;95743.71;1681433;85;20162;-66
2022/07/16 10:39:23;;;;;;;4.30;2.00;;;;;;;26.37;29.60;95736.09;1681393;85;21504;-66
2022/07/16 10:42:06;;;;;;;2.58;1.90;;;;;;;26.36;27.57;95732.14;1681254;85;21499;-66
2022/07/16 10:44:48;;;;;;;5.15;1.98;;;;;;;26.60;29.27;95726.17;1681535;85;21030;-66
2022/07/16 10:47:17;;;;;;;3.37;1.80;;;;;;;27.16;29.64;95729.30;1681589;85;21013;-66
2022/07/16 10:49:44;;;;;;;4.78;2.00;;;;;;;27.29;28.01;95741.36;1681087;85;21045;-66
2022/07/16 10:52:18;;;;;;;2.33;2.12;;;;;;;27.22;28.94;95736.97;1681209;85;21044;-66
2022/07/16 10:54:56;;;;;;;2.42;1.57;;;;;;;27.36;28.30;95731.23;1681490;85;21077;-66
2022/07/16 10:57:35;;;;;;;2.52;2.00;;;;;;;27.56;28.78;95739.05;1681464;85;21022;-66
2022/07/16 11:00:06;;;;;;;3.60;1.95;;;;;;;27.92;28.60;95735.63;1681427;85;21056;-66
2022/07/16 11:02:41;;;;;;;4.85;2.02;;;;;;;28.09;26.98;95740.94;1681405;85;20989;-66
2022/07/16 11:05:09;;;;;;;2.47;1.72;;;;;;;27.96;25.96;95732.99;1681361;85;21040;-66
2022/07/16 11:07:36;;;;;;;6.42;1.82;;;;;;;28.09;26.36;95732.80;1681593;85;21066;-66
2022/07/16 11:10:05;;;;;;;5.40;2.17;;;;;;;28.03;27.31;95734.69;1681079;85;21041;-66
2022/07/16 11:12:34;;;;;;;5.15;1.98;;;;;;;28.00;27.92;95739.03;1681451;85;21036;-66
2022/07/16 11:15:03;;;;;;;4.03;2.10;;;;;;;28.12;26.69;95733.88;1681452;85;21034;-66
2022/07/16 11:17:31;;;;;;;2.80;2.10;;;;;;;28.08;26.28;95735.16;1680967;85;21061;-66
2022/07/16 11:20:05;;;;;;;3.55;1.95;;;;;;;28.04;27.19;95729.62;1678565;85;21120;-66
2022/07/16 11:22:31;;;;;;;4.70;2.10;;;;;;;28.21;27.48;95733.09;1678750;85;21050;-66
2022/07/16 11:25:03;;;;;;;2.42;1.40;;;;;;;28.15;27.53;95732.75;1678525;85;21090;-66
2022/07/16 11:27:34;;;;;;;2.70;1.67;;;;;;;28.17;24.89;95742.52;1678872;85;21045;-66
2022/07/16 11:30:08;;;;;;;2.87;1.72;;;;;;;27.38;26.49;95734.69;1678365;85;21072;-66
2022/07/16 11:32:47;;;;;;;3.52;1.75;;;;;;;27.80;27.14;95733.92;1678739;85;20998;-66
2022/07/16 11:35:14;;;;;;;4.97;2.05;;;;;;;28.07;26.78;95723.92;1678803;85;20990;-66
2022/07/16 11:37:55;;;;;;;2.83;2.00;;;;;;;28.10;26.69;95741.78;1678557;85;21539;-67
2022/07/16 11:40:35;;;;;;;2.58;1.75;;;;;;;28.15;26.46;95748.56;1678712;85;21026;-66
2022/07/16 11:43:02;;;;;;;4.12;2.00;;;;;;;28.18;27.20;95727.09;1678660;85;21073;-66
2022/07/16 11:45:44;;;;;;;2.87;1.90;;;;;;;28.45;27.16;95734.20;1678419;85;21045;-66